sensor_id;sensor_type;location;lat;lon;timestamp;P1;durP1;ratioP1;P2;durP2;ratioP2
60969;SDS011;46841;48.938;9.502;2023-01-23T00:01:38;24.02;;;13.32;;
60969;SDS011;46841;48.938;9.502;2023-01-23T00:04:04;24.23;;;12.63;;
60969;SDS011;46841;48.938;9.502;2023-01-23T00:06:30;23.35;;;13.10;;
60969;SDS011;46841;48.938;9.502;2023-01-23T00:08:55;22.08;;;12.52;;
60969;SDS011;46841;48.938;9.502;2023-01-23T00:11:22;23.35;;;13.25;;
60969;SDS011;46841;48.938;9.502;2023-01-23T00:13:50;20.80;;;12.15;;
60969;SDS011;46841;48.938;9.502;2023-01-23T00:16:17;24.17;;;13.00;;
60969;SDS011;46841;48.938;9.502;2023-01-23T00:18:46;23.58;;;13.00;;
60969;SDS011;46841;48.938;9.502;2023-01-23T00:21:13;20.63;;;11.70;;
60969;SDS011;46841;48.938;9.502;2023-01-23T00:23:45;25.42;;;13.98;;
60969;SDS011;46841;48.938;9.502;2023-01-23T00:26:16;26.48;;;14.15;;
60969;SDS011;46841;48.938;9.502;2023-01-23T00:28:44;23.58;;;13.70;;
60969;SDS011;46841;48.938;9.502;2023-01-23T00:31:14;25.15;;;13.90;;
60969;SDS011;46841;48.938;9.502;2023-01-23T00:33:42;29.83;;;15.80;;
60969;SDS011;46841;48.938;9.502;2023-01-23T00:36:09;27.40;;;14.67;;
60969;SDS011;46841;48.938;9.502;2023-01-23T00:38:35;22.90;;;13.65;;
60969;SDS011;46841;48.938;9.502;2023-01-23T00:41:01;24.60;;;14.07;;
60969;SDS011;46841;48.938;9.502;2023-01-23T00:43:27;25.83;;;14.43;;
60969;SDS011;46841;48.938;9.502;2023-01-23T00:45:53;24.98;;;13.85;;
60969;SDS011;46841;48.938;9.502;2023-01-23T00:48:18;22.73;;;13.20;;
60969;SDS011;46841;48.938;9.502;2023-01-23T00:50:44;22.42;;;13.20;;
60969;SDS011;46841;48.938;9.502;2023-01-23T00:53:09;25.20;;;14.35;;
60969;SDS011;46841;48.938;9.502;2023-01-23T00:55:36;27.30;;;14.05;;
60969;SDS011;46841;48.938;9.502;2023-01-23T00:58:02;26.20;;;15.18;;
60969;SDS011;46841;48.938;9.502;2023-01-23T01:00:28;26.65;;;14.35;;
60969;SDS011;46841;48.938;9.502;2023-01-23T01:02:54;23.20;;;13.23;;
60969;SDS011;46841;48.938;9.502;2023-01-23T01:05:20;26.23;;;14.30;;
60969;SDS011;46841;48.938;9.502;2023-01-23T01:07:46;26.83;;;14.20;;
60969;SDS011;46841;48.938;9.502;2023-01-23T01:10:12;26.57;;;15.37;;
60969;SDS011;46841;48.938;9.502;2023-01-23T01:12:38;24.40;;;14.50;;
60969;SDS011;46841;48.938;9.502;2023-01-23T01:15:04;26.50;;;15.02;;
60969;SDS011;46841;48.938;9.502;2023-01-23T01:17:30;25.73;;;14.63;;
60969;SDS011;46841;48.938;9.502;2023-01-23T01:19:56;27.17;;;15.13;;
60969;SDS011;46841;48.938;9.502;2023-01-23T01:22:21;27.83;;;15.70;;
60969;SDS011;46841;48.938;9.502;2023-01-23T01:24:47;24.52;;;14.18;;
60969;SDS011;46841;48.938;9.502;2023-01-23T01:27:13;30.05;;;16.02;;
60969;SDS011;46841;48.938;9.502;2023-01-23T01:29:39;25.45;;;13.82;;
60969;SDS011;46841;48.938;9.502;2023-01-23T01:32:04;25.65;;;13.90;;
60969;SDS011;46841;48.938;9.502;2023-01-23T01:34:30;25.05;;;15.00;;
60969;SDS011;46841;48.938;9.502;2023-01-23T01:36:55;23.33;;;13.57;;
60969;SDS011;46841;48.938;9.502;2023-01-23T01:39:21;26.45;;;15.38;;
60969;SDS011;46841;48.938;9.502;2023-01-23T01:41:47;27.25;;;13.93;;
60969;SDS011;46841;48.938;9.502;2023-01-23T01:44:16;27.42;;;15.20;;
60969;SDS011;46841;48.938;9.502;2023-01-23T01:46:44;26.77;;;14.30;;
60969;SDS011;46841;48.938;9.502;2023-01-23T01:51:57;32.75;;;15.63;;
60969;SDS011;46841;48.938;9.502;2023-01-23T01:57:37;25.75;;;13.82;;
60969;SDS011;46841;48.938;9.502;2023-01-23T01:59:50;25.30;;;14.07;;
60969;SDS011;46841;48.938;9.502;2023-01-23T02:04:57;25.52;;;14.70;;
60969;SDS011;46841;48.938;9.502;2023-01-23T02:07:31;21.48;;;12.88;;
60969;SDS011;46841;48.938;9.502;2023-01-23T02:10:00;25.05;;;13.15;;
60969;SDS011;46841;48.938;9.502;2023-01-23T02:12:28;23.17;;;13.65;;
60969;SDS011;46841;48.938;9.502;2023-01-23T02:14:56;23.80;;;13.25;;
60969;SDS011;46841;48.938;9.502;2023-01-23T02:17:22;23.92;;;13.07;;
60969;SDS011;46841;48.938;9.502;2023-01-23T02:28:13;26.95;;;15.25;;
60969;SDS011;46841;48.938;9.502;2023-01-23T02:30:41;25.90;;;14.93;;
60969;SDS011;46841;48.938;9.502;2023-01-23T02:35:50;28.02;;;15.55;;
60969;SDS011;46841;48.938;9.502;2023-01-23T02:38:16;28.30;;;16.58;;
60969;SDS011;46841;48.938;9.502;2023-01-23T02:40:46;28.38;;;15.43;;
60969;SDS011;46841;48.938;9.502;2023-01-23T02:43:17;26.73;;;14.45;;
60969;SDS011;46841;48.938;9.502;2023-01-23T02:45:53;25.40;;;15.18;;
60969;SDS011;46841;48.938;9.502;2023-01-23T02:48:19;22.30;;;12.48;;
60969;SDS011;46841;48.938;9.502;2023-01-23T02:50:46;28.50;;;14.40;;
60969;SDS011;46841;48.938;9.502;2023-01-23T02:53:12;26.02;;;14.75;;
60969;SDS011;46841;48.938;9.502;2023-01-23T02:55:37;27.58;;;15.48;;
60969;SDS011;46841;48.938;9.502;2023-01-23T02:58:07;25.63;;;14.52;;
60969;SDS011;46841;48.938;9.502;2023-01-23T03:00:51;26.52;;;14.45;;
60969;SDS011;46841;48.938;9.502;2023-01-23T03:03:17;30.70;;;15.32;;
60969;SDS011;46841;48.938;9.502;2023-01-23T03:05:43;28.52;;;15.05;;
60969;SDS011;46841;48.938;9.502;2023-01-23T03:08:10;28.58;;;15.50;;
60969;SDS011;46841;48.938;9.502;2023-01-23T03:10:36;28.33;;;14.13;;
60969;SDS011;46841;48.938;9.502;2023-01-23T03:13:01;24.98;;;14.45;;
60969;SDS011;46841;48.938;9.502;2023-01-23T03:15:30;26.55;;;13.70;;
60969;SDS011;46841;48.938;9.502;2023-01-23T03:17:56;25.38;;;14.73;;
60969;SDS011;46841;48.938;9.502;2023-01-23T03:20:22;30.58;;;15.55;;
60969;SDS011;46841;48.938;9.502;2023-01-23T03:22:48;27.02;;;14.75;;
60969;SDS011;46841;48.938;9.502;2023-01-23T03:25:14;25.45;;;13.65;;
60969;SDS011;46841;48.938;9.502;2023-01-23T03:27:40;27.53;;;14.77;;
60969;SDS011;46841;48.938;9.502;2023-01-23T03:30:09;23.55;;;13.38;;
60969;SDS011;46841;48.938;9.502;2023-01-23T03:32:41;26.67;;;13.90;;
60969;SDS011;46841;48.938;9.502;2023-01-23T03:35:08;22.60;;;12.90;;
60969;SDS011;46841;48.938;9.502;2023-01-23T03:37:38;27.30;;;14.55;;
60969;SDS011;46841;48.938;9.502;2023-01-23T03:40:03;25.20;;;13.93;;
60969;SDS011;46841;48.938;9.502;2023-01-23T03:42:48;27.38;;;13.20;;
60969;SDS011;46841;48.938;9.502;2023-01-23T03:45:20;22.40;;;12.88;;
60969;SDS011;46841;48.938;9.502;2023-01-23T03:47:46;26.33;;;13.68;;
60969;SDS011;46841;48.938;9.502;2023-01-23T03:50:11;27.42;;;14.35;;
60969;SDS011;46841;48.938;9.502;2023-01-23T03:52:38;29.77;;;14.30;;
60969;SDS011;46841;48.938;9.502;2023-01-23T03:55:04;25.63;;;13.55;;
60969;SDS011;46841;48.938;9.502;2023-01-23T03:57:31;25.30;;;13.27;;
60969;SDS011;46841;48.938;9.502;2023-01-23T04:00:06;25.45;;;13.20;;
60969;SDS011;46841;48.938;9.502;2023-01-23T04:02:43;27.85;;;14.57;;
60969;SDS011;46841;48.938;9.502;2023-01-23T04:05:11;25.55;;;13.43;;
60969;SDS011;46841;48.938;9.502;2023-01-23T04:07:37;26.00;;;13.15;;
60969;SDS011;46841;48.938;9.502;2023-01-23T04:10:02;25.63;;;13.88;;
60969;SDS011;46841;48.938;9.502;2023-01-23T04:12:28;24.55;;;12.20;;
60969;SDS011;46841;48.938;9.502;2023-01-23T04:14:53;26.40;;;14.20;;
60969;SDS011;46841;48.938;9.502;2023-01-23T04:17:19;24.63;;;12.88;;
60969;SDS011;46841;48.938;9.502;2023-01-23T04:19:44;26.42;;;13.20;;
60969;SDS011;46841;48.938;9.502;2023-01-23T04:22:10;24.73;;;13.45;;
60969;SDS011;46841;48.938;9.502;2023-01-23T04:24:44;28.00;;;13.93;;
60969;SDS011;46841;48.938;9.502;2023-01-23T04:27:10;25.27;;;12.50;;
60969;SDS011;46841;48.938;9.502;2023-01-23T04:29:35;24.98;;;12.68;;
60969;SDS011;46841;48.938;9.502;2023-01-23T04:32:01;25.60;;;13.20;;
60969;SDS011;46841;48.938;9.502;2023-01-23T04:34:28;25.42;;;13.40;;
60969;SDS011;46841;48.938;9.502;2023-01-23T04:39:21;22.85;;;11.68;;
60969;SDS011;46841;48.938;9.502;2023-01-23T04:41:48;26.23;;;12.80;;
60969;SDS011;46841;48.938;9.502;2023-01-23T04:44:25;25.05;;;13.00;;
60969;SDS011;46841;48.938;9.502;2023-01-23T04:47:09;26.63;;;13.07;;
60969;SDS011;46841;48.938;9.502;2023-01-23T04:49:35;27.27;;;13.25;;
60969;SDS011;46841;48.938;9.502;2023-01-23T04:52:01;27.73;;;12.85;;
60969;SDS011;46841;48.938;9.502;2023-01-23T04:54:28;26.17;;;13.13;;
60969;SDS011;46841;48.938;9.502;2023-01-23T04:56:55;27.98;;;13.93;;
60969;SDS011;46841;48.938;9.502;2023-01-23T04:59:21;25.52;;;12.68;;
60969;SDS011;46841;48.938;9.502;2023-01-23T05:01:47;27.73;;;14.35;;
60969;SDS011;46841;48.938;9.502;2023-01-23T05:04:12;25.90;;;13.63;;
60969;SDS011;46841;48.938;9.502;2023-01-23T05:06:38;28.20;;;13.63;;
60969;SDS011;46841;48.938;9.502;2023-01-23T05:09:05;29.40;;;15.15;;
60969;SDS011;46841;48.938;9.502;2023-01-23T05:11:37;29.23;;;14.00;;
60969;SDS011;46841;48.938;9.502;2023-01-23T05:14:02;27.75;;;14.43;;
60969;SDS011;46841;48.938;9.502;2023-01-23T05:16:29;29.45;;;14.00;;
60969;SDS011;46841;48.938;9.502;2023-01-23T05:19:27;28.88;;;14.05;;
60969;SDS011;46841;48.938;9.502;2023-01-23T05:21:53;28.83;;;15.30;;
60969;SDS011;46841;48.938;9.502;2023-01-23T05:24:20;44.25;;;19.23;;
60969;SDS011;46841;48.938;9.502;2023-01-23T05:26:46;48.17;;;20.88;;
60969;SDS011;46841;48.938;9.502;2023-01-23T05:29:12;29.10;;;14.25;;
60969;SDS011;46841;48.938;9.502;2023-01-23T05:31:46;30.92;;;15.13;;
60969;SDS011;46841;48.938;9.502;2023-01-23T05:34:38;28.10;;;14.32;;
60969;SDS011;46841;48.938;9.502;2023-01-23T05:37:13;27.50;;;14.45;;
60969;SDS011;46841;48.938;9.502;2023-01-23T05:39:42;30.08;;;15.50;;
60969;SDS011;46841;48.938;9.502;2023-01-23T05:42:08;29.75;;;15.50;;
60969;SDS011;46841;48.938;9.502;2023-01-23T05:44:42;31.80;;;15.70;;
60969;SDS011;46841;48.938;9.502;2023-01-23T05:47:14;33.40;;;16.17;;
60969;SDS011;46841;48.938;9.502;2023-01-23T05:49:39;29.10;;;16.58;;
60969;SDS011;46841;48.938;9.502;2023-01-23T05:52:05;33.58;;;17.20;;
60969;SDS011;46841;48.938;9.502;2023-01-23T05:54:31;30.90;;;16.02;;
60969;SDS011;46841;48.938;9.502;2023-01-23T05:56:57;33.22;;;18.45;;
60969;SDS011;46841;48.938;9.502;2023-01-23T05:59:41;30.33;;;15.73;;
60969;SDS011;46841;48.938;9.502;2023-01-23T06:02:28;36.97;;;18.30;;
60969;SDS011;46841;48.938;9.502;2023-01-23T06:05:13;35.40;;;16.63;;
60969;SDS011;46841;48.938;9.502;2023-01-23T06:07:58;32.63;;;15.65;;
60969;SDS011;46841;48.938;9.502;2023-01-23T06:10:23;31.15;;;15.40;;
60969;SDS011;46841;48.938;9.502;2023-01-23T06:12:48;32.15;;;15.07;;
60969;SDS011;46841;48.938;9.502;2023-01-23T06:15:14;30.15;;;14.65;;
60969;SDS011;46841;48.938;9.502;2023-01-23T06:17:40;37.38;;;17.02;;
60969;SDS011;46841;48.938;9.502;2023-01-23T06:20:05;34.38;;;16.90;;
60969;SDS011;46841;48.938;9.502;2023-01-23T06:22:31;36.77;;;17.53;;
60969;SDS011;46841;48.938;9.502;2023-01-23T06:25:01;32.88;;;16.27;;
60969;SDS011;46841;48.938;9.502;2023-01-23T06:27:27;35.97;;;16.52;;
60969;SDS011;46841;48.938;9.502;2023-01-23T06:29:53;30.67;;;15.65;;
60969;SDS011;46841;48.938;9.502;2023-01-23T06:32:19;35.08;;;16.83;;
60969;SDS011;46841;48.938;9.502;2023-01-23T06:34:45;35.93;;;16.90;;
60969;SDS011;46841;48.938;9.502;2023-01-23T06:37:11;37.05;;;15.98;;
60969;SDS011;46841;48.938;9.502;2023-01-23T06:39:38;35.58;;;16.00;;
60969;SDS011;46841;48.938;9.502;2023-01-23T06:42:05;31.38;;;14.38;;
60969;SDS011;46841;48.938;9.502;2023-01-23T06:44:37;29.20;;;14.45;;
60969;SDS011;46841;48.938;9.502;2023-01-23T06:47:03;37.17;;;16.90;;
60969;SDS011;46841;48.938;9.502;2023-01-23T06:49:29;42.83;;;18.80;;
60969;SDS011;46841;48.938;9.502;2023-01-23T06:51:55;46.65;;;18.35;;
60969;SDS011;46841;48.938;9.502;2023-01-23T06:54:22;38.58;;;16.85;;
60969;SDS011;46841;48.938;9.502;2023-01-23T06:56:49;33.50;;;16.38;;
60969;SDS011;46841;48.938;9.502;2023-01-23T07:01:43;31.23;;;15.00;;
60969;SDS011;46841;48.938;9.502;2023-01-23T07:04:11;31.60;;;14.80;;
60969;SDS011;46841;48.938;9.502;2023-01-23T07:06:38;36.00;;;16.27;;
60969;SDS011;46841;48.938;9.502;2023-01-23T07:09:04;32.45;;;16.17;;
60969;SDS011;46841;48.938;9.502;2023-01-23T07:11:29;35.20;;;15.60;;
60969;SDS011;46841;48.938;9.502;2023-01-23T07:13:55;33.78;;;15.38;;
60969;SDS011;46841;48.938;9.502;2023-01-23T07:16:20;36.17;;;16.92;;
60969;SDS011;46841;48.938;9.502;2023-01-23T07:18:47;33.45;;;16.02;;
60969;SDS011;46841;48.938;9.502;2023-01-23T07:21:12;40.58;;;18.00;;
60969;SDS011;46841;48.938;9.502;2023-01-23T07:23:38;35.25;;;17.42;;
60969;SDS011;46841;48.938;9.502;2023-01-23T07:26:04;35.85;;;15.88;;
60969;SDS011;46841;48.938;9.502;2023-01-23T07:28:37;30.80;;;15.35;;
60969;SDS011;46841;48.938;9.502;2023-01-23T07:31:04;32.42;;;15.57;;
60969;SDS011;46841;48.938;9.502;2023-01-23T07:33:30;33.78;;;16.48;;
60969;SDS011;46841;48.938;9.502;2023-01-23T07:35:56;35.42;;;15.23;;
60969;SDS011;46841;48.938;9.502;2023-01-23T07:38:21;30.42;;;15.38;;
60969;SDS011;46841;48.938;9.502;2023-01-23T07:40:50;39.45;;;16.90;;
60969;SDS011;46841;48.938;9.502;2023-01-23T07:43:16;36.07;;;18.63;;
60969;SDS011;46841;48.938;9.502;2023-01-23T07:45:42;33.25;;;15.85;;
60969;SDS011;46841;48.938;9.502;2023-01-23T07:48:08;34.00;;;15.32;;
60969;SDS011;46841;48.938;9.502;2023-01-23T07:50:34;31.92;;;14.77;;
60969;SDS011;46841;48.938;9.502;2023-01-23T07:53:02;32.17;;;16.10;;
60969;SDS011;46841;48.938;9.502;2023-01-23T07:55:28;31.35;;;15.10;;
60969;SDS011;46841;48.938;9.502;2023-01-23T07:57:54;29.90;;;15.05;;
60969;SDS011;46841;48.938;9.502;2023-01-23T08:00:20;35.53;;;15.10;;
60969;SDS011;46841;48.938;9.502;2023-01-23T08:02:46;31.05;;;15.85;;
60969;SDS011;46841;48.938;9.502;2023-01-23T08:05:11;29.40;;;14.10;;
60969;SDS011;46841;48.938;9.502;2023-01-23T08:07:37;27.23;;;13.30;;
60969;SDS011;46841;48.938;9.502;2023-01-23T08:10:02;27.13;;;13.32;;
60969;SDS011;46841;48.938;9.502;2023-01-23T08:12:28;25.58;;;12.48;;
60969;SDS011;46841;48.938;9.502;2023-01-23T08:14:53;25.13;;;12.02;;
60969;SDS011;46841;48.938;9.502;2023-01-23T08:17:19;26.60;;;13.48;;
60969;SDS011;46841;48.938;9.502;2023-01-23T08:19:45;24.30;;;10.80;;
60969;SDS011;46841;48.938;9.502;2023-01-23T08:22:10;23.60;;;11.90;;
60969;SDS011;46841;48.938;9.502;2023-01-23T08:24:36;22.38;;;11.35;;
60969;SDS011;46841;48.938;9.502;2023-01-23T08:27:01;24.08;;;11.75;;
60969;SDS011;46841;48.938;9.502;2023-01-23T08:29:27;24.65;;;11.90;;
60969;SDS011;46841;48.938;9.502;2023-01-23T08:31:52;23.40;;;11.63;;
60969;SDS011;46841;48.938;9.502;2023-01-23T08:34:19;24.63;;;12.67;;
60969;SDS011;46841;48.938;9.502;2023-01-23T08:36:45;22.23;;;11.00;;
60969;SDS011;46841;48.938;9.502;2023-01-23T08:39:10;22.80;;;11.23;;
60969;SDS011;46841;48.938;9.502;2023-01-23T08:41:36;21.52;;;10.90;;
60969;SDS011;46841;48.938;9.502;2023-01-23T08:44:01;18.80;;;10.35;;
60969;SDS011;46841;48.938;9.502;2023-01-23T08:46:28;23.85;;;12.20;;
60969;SDS011;46841;48.938;9.502;2023-01-23T08:48:54;23.35;;;11.23;;
60969;SDS011;46841;48.938;9.502;2023-01-23T08:51:19;23.98;;;13.23;;
60969;SDS011;46841;48.938;9.502;2023-01-23T08:53:45;23.38;;;12.35;;
60969;SDS011;46841;48.938;9.502;2023-01-23T08:56:15;23.13;;;11.20;;
60969;SDS011;46841;48.938;9.502;2023-01-23T08:58:42;25.88;;;13.80;;
60969;SDS011;46841;48.938;9.502;2023-01-23T09:01:11;21.58;;;11.88;;
60969;SDS011;46841;48.938;9.502;2023-01-23T09:03:38;23.80;;;12.93;;
60969;SDS011;46841;48.938;9.502;2023-01-23T09:06:04;24.63;;;13.50;;
60969;SDS011;46841;48.938;9.502;2023-01-23T09:08:30;22.92;;;11.10;;
60969;SDS011;46841;48.938;9.502;2023-01-23T09:10:59;25.23;;;11.23;;
60969;SDS011;46841;48.938;9.502;2023-01-23T09:13:26;20.52;;;11.32;;
60969;SDS011;46841;48.938;9.502;2023-01-23T09:15:51;21.55;;;11.63;;
60969;SDS011;46841;48.938;9.502;2023-01-23T09:18:17;20.55;;;10.38;;
60969;SDS011;46841;48.938;9.502;2023-01-23T09:20:42;21.48;;;10.45;;
60969;SDS011;46841;48.938;9.502;2023-01-23T09:23:08;17.85;;;9.57;;
60969;SDS011;46841;48.938;9.502;2023-01-23T09:25:33;20.42;;;9.77;;
60969;SDS011;46841;48.938;9.502;2023-01-23T09:27:59;23.48;;;10.82;;
60969;SDS011;46841;48.938;9.502;2023-01-23T09:30:24;19.00;;;10.52;;
60969;SDS011;46841;48.938;9.502;2023-01-23T09:32:50;19.67;;;10.82;;
60969;SDS011;46841;48.938;9.502;2023-01-23T09:35:15;19.45;;;9.35;;
60969;SDS011;46841;48.938;9.502;2023-01-23T09:37:40;22.02;;;11.07;;
60969;SDS011;46841;48.938;9.502;2023-01-23T09:40:28;19.83;;;10.85;;
60969;SDS011;46841;48.938;9.502;2023-01-23T09:43:15;22.48;;;11.35;;
60969;SDS011;46841;48.938;9.502;2023-01-23T09:51:04;18.50;;;10.02;;
60969;SDS011;46841;48.938;9.502;2023-01-23T09:53:37;24.80;;;12.73;;
60969;SDS011;46841;48.938;9.502;2023-01-23T09:58:38;23.15;;;11.38;;
60969;SDS011;46841;48.938;9.502;2023-01-23T10:01:11;35.88;;;12.23;;
60969;SDS011;46841;48.938;9.502;2023-01-23T10:03:37;26.02;;;12.52;;
60969;SDS011;46841;48.938;9.502;2023-01-23T10:06:07;23.23;;;11.27;;
60969;SDS011;46841;48.938;9.502;2023-01-23T10:17:26;24.83;;;12.05;;
60969;SDS011;46841;48.938;9.502;2023-01-23T10:20:09;21.30;;;11.73;;
60969;SDS011;46841;48.938;9.502;2023-01-23T10:25:35;24.17;;;11.20;;
60969;SDS011;46841;48.938;9.502;2023-01-23T10:28:51;22.70;;;12.38;;
60969;SDS011;46841;48.938;9.502;2023-01-23T10:34:01;22.08;;;11.57;;
60969;SDS011;46841;48.938;9.502;2023-01-23T10:40:11;24.33;;;12.13;;
60969;SDS011;46841;48.938;9.502;2023-01-23T10:42:16;23.45;;;11.68;;
60969;SDS011;46841;48.938;9.502;2023-01-23T10:44:45;26.20;;;12.85;;
60969;SDS011;46841;48.938;9.502;2023-01-23T10:47:17;24.65;;;12.05;;
60969;SDS011;46841;48.938;9.502;2023-01-23T10:49:45;26.50;;;13.20;;
60969;SDS011;46841;48.938;9.502;2023-01-23T10:54:55;23.30;;;11.80;;
60969;SDS011;46841;48.938;9.502;2023-01-23T10:57:22;26.00;;;12.77;;
60969;SDS011;46841;48.938;9.502;2023-01-23T10:59:54;26.50;;;13.05;;
60969;SDS011;46841;48.938;9.502;2023-01-23T11:02:32;24.27;;;12.45;;
60969;SDS011;46841;48.938;9.502;2023-01-23T11:04:59;27.17;;;12.77;;
60969;SDS011;46841;48.938;9.502;2023-01-23T11:07:35;25.77;;;12.88;;
60969;SDS011;46841;48.938;9.502;2023-01-23T11:12:49;23.65;;;12.10;;
60969;SDS011;46841;48.938;9.502;2023-01-23T11:17:51;29.90;;;12.50;;
60969;SDS011;46841;48.938;9.502;2023-01-23T11:22:58;23.93;;;12.50;;
60969;SDS011;46841;48.938;9.502;2023-01-23T11:27:56;27.73;;;14.80;;
60969;SDS011;46841;48.938;9.502;2023-01-23T11:30:43;26.58;;;13.18;;
60969;SDS011;46841;48.938;9.502;2023-01-23T11:38:30;26.33;;;13.75;;
60969;SDS011;46841;48.938;9.502;2023-01-23T11:41:02;22.17;;;12.00;;
60969;SDS011;46841;48.938;9.502;2023-01-23T11:43:29;21.15;;;12.48;;
60969;SDS011;46841;48.938;9.502;2023-01-23T11:46:05;20.65;;;11.15;;
60969;SDS011;46841;48.938;9.502;2023-01-23T11:48:50;24.33;;;12.98;;
60969;SDS011;46841;48.938;9.502;2023-01-23T11:54:33;24.67;;;11.27;;
60969;SDS011;46841;48.938;9.502;2023-01-23T11:57:06;22.30;;;11.48;;
60969;SDS011;46841;48.938;9.502;2023-01-23T11:59:44;20.52;;;11.82;;
60969;SDS011;46841;48.938;9.502;2023-01-23T12:13:09;21.98;;;12.07;;
60969;SDS011;46841;48.938;9.502;2023-01-23T12:15:45;24.27;;;12.52;;
60969;SDS011;46841;48.938;9.502;2023-01-23T12:21:17;24.83;;;11.65;;
60969;SDS011;46841;48.938;9.502;2023-01-23T12:26:18;22.23;;;10.75;;
60969;SDS011;46841;48.938;9.502;2023-01-23T12:32:07;20.60;;;11.35;;
60969;SDS011;46841;48.938;9.502;2023-01-23T12:38:08;25.08;;;11.70;;
60969;SDS011;46841;48.938;9.502;2023-01-23T12:47:19;24.38;;;13.75;;
60969;SDS011;46841;48.938;9.502;2023-01-23T12:50:00;23.77;;;11.93;;
60969;SDS011;46841;48.938;9.502;2023-01-23T12:52:50;21.02;;;11.65;;
60969;SDS011;46841;48.938;9.502;2023-01-23T12:56:04;23.55;;;12.65;;
60969;SDS011;46841;48.938;9.502;2023-01-23T12:58:41;20.65;;;11.05;;
60969;SDS011;46841;48.938;9.502;2023-01-23T13:05:02;20.98;;;11.85;;
60969;SDS011;46841;48.938;9.502;2023-01-23T13:08:02;21.17;;;11.30;;
60969;SDS011;46841;48.938;9.502;2023-01-23T13:18:38;18.13;;;9.80;;
60969;SDS011;46841;48.938;9.502;2023-01-23T13:22:25;17.33;;;9.88;;
60969;SDS011;46841;48.938;9.502;2023-01-23T13:29:58;21.25;;;10.98;;
60969;SDS011;46841;48.938;9.502;2023-01-23T13:33:18;21.33;;;11.10;;
60969;SDS011;46841;48.938;9.502;2023-01-23T13:36:45;19.17;;;9.95;;
60969;SDS011;46841;48.938;9.502;2023-01-23T13:47:35;17.48;;;10.02;;
60969;SDS011;46841;48.938;9.502;2023-01-23T13:51:34;17.98;;;9.60;;
60969;SDS011;46841;48.938;9.502;2023-01-23T13:55:26;18.58;;;10.40;;
60969;SDS011;46841;48.938;9.502;2023-01-23T13:59:15;15.32;;;9.43;;
60969;SDS011;46841;48.938;9.502;2023-01-23T14:02:56;19.45;;;11.40;;
60969;SDS011;46841;48.938;9.502;2023-01-23T14:06:48;20.85;;;11.27;;
60969;SDS011;46841;48.938;9.502;2023-01-23T14:09:34;20.13;;;11.90;;
60969;SDS011;46841;48.938;9.502;2023-01-23T14:12:01;20.02;;;11.63;;
60969;SDS011;46841;48.938;9.502;2023-01-23T14:14:34;20.13;;;11.20;;
60969;SDS011;46841;48.938;9.502;2023-01-23T14:17:23;21.88;;;11.40;;
60969;SDS011;46841;48.938;9.502;2023-01-23T14:22:26;21.63;;;11.98;;
60969;SDS011;46841;48.938;9.502;2023-01-23T14:25:19;23.33;;;12.43;;
60969;SDS011;46841;48.938;9.502;2023-01-23T14:28:57;23.90;;;11.38;;
60969;SDS011;46841;48.938;9.502;2023-01-23T14:32:23;18.40;;;10.82;;
60969;SDS011;46841;48.938;9.502;2023-01-23T14:35:48;28.58;;;19.30;;
60969;SDS011;46841;48.938;9.502;2023-01-23T14:39:25;23.15;;;12.68;;
60969;SDS011;46841;48.938;9.502;2023-01-23T14:42:51;22.23;;;12.05;;
60969;SDS011;46841;48.938;9.502;2023-01-23T14:45:24;23.80;;;14.73;;
60969;SDS011;46841;48.938;9.502;2023-01-23T14:47:52;24.88;;;12.68;;
60969;SDS011;46841;48.938;9.502;2023-01-23T14:50:19;23.95;;;13.05;;
60969;SDS011;46841;48.938;9.502;2023-01-23T14:52:56;26.13;;;13.90;;
60969;SDS011;46841;48.938;9.502;2023-01-23T14:55:26;28.30;;;17.27;;
60969;SDS011;46841;48.938;9.502;2023-01-23T14:57:53;25.60;;;13.70;;
60969;SDS011;46841;48.938;9.502;2023-01-23T15:00:21;27.05;;;14.60;;
60969;SDS011;46841;48.938;9.502;2023-01-23T15:02:47;28.55;;;15.95;;
60969;SDS011;46841;48.938;9.502;2023-01-23T15:05:24;31.27;;;18.67;;
60969;SDS011;46841;48.938;9.502;2023-01-23T15:12:57;29.77;;;15.20;;
60969;SDS011;46841;48.938;9.502;2023-01-23T15:15:36;33.30;;;18.60;;
60969;SDS011;46841;48.938;9.502;2023-01-23T15:18:02;29.30;;;18.08;;
60969;SDS011;46841;48.938;9.502;2023-01-23T15:20:40;24.13;;;13.45;;
60969;SDS011;46841;48.938;9.502;2023-01-23T15:25:42;25.75;;;13.38;;
60969;SDS011;46841;48.938;9.502;2023-01-23T15:28:30;25.92;;;12.77;;
60969;SDS011;46841;48.938;9.502;2023-01-23T15:31:01;26.08;;;12.98;;
60969;SDS011;46841;48.938;9.502;2023-01-23T15:33:53;27.80;;;14.02;;
60969;SDS011;46841;48.938;9.502;2023-01-23T15:36:26;28.80;;;15.50;;
60969;SDS011;46841;48.938;9.502;2023-01-23T15:38:54;28.10;;;13.65;;
60969;SDS011;46841;48.938;9.502;2023-01-23T15:41:36;24.92;;;14.63;;
60969;SDS011;46841;48.938;9.502;2023-01-23T15:44:02;30.92;;;15.13;;
60969;SDS011;46841;48.938;9.502;2023-01-23T15:46:27;36.65;;;17.13;;
60969;SDS011;46841;48.938;9.502;2023-01-23T15:48:53;28.95;;;15.38;;
60969;SDS011;46841;48.938;9.502;2023-01-23T15:51:18;24.23;;;13.40;;
60969;SDS011;46841;48.938;9.502;2023-01-23T15:53:44;28.60;;;15.15;;
60969;SDS011;46841;48.938;9.502;2023-01-23T15:56:13;24.77;;;13.38;;
60969;SDS011;46841;48.938;9.502;2023-01-23T15:58:51;32.20;;;14.45;;
60969;SDS011;46841;48.938;9.502;2023-01-23T16:01:16;25.60;;;13.80;;
60969;SDS011;46841;48.938;9.502;2023-01-23T16:03:42;22.67;;;13.07;;
60969;SDS011;46841;48.938;9.502;2023-01-23T16:06:10;29.10;;;15.32;;
60969;SDS011;46841;48.938;9.502;2023-01-23T16:08:43;24.73;;;13.27;;
60969;SDS011;46841;48.938;9.502;2023-01-23T16:11:09;25.95;;;14.45;;
60969;SDS011;46841;48.938;9.502;2023-01-23T16:13:34;25.35;;;12.98;;
60969;SDS011;46841;48.938;9.502;2023-01-23T16:16:00;26.02;;;14.30;;
60969;SDS011;46841;48.938;9.502;2023-01-23T16:18:25;24.83;;;13.57;;
60969;SDS011;46841;48.938;9.502;2023-01-23T16:20:50;26.58;;;13.95;;
60969;SDS011;46841;48.938;9.502;2023-01-23T16:23:20;30.60;;;14.88;;
60969;SDS011;46841;48.938;9.502;2023-01-23T16:25:48;27.50;;;14.13;;
60969;SDS011;46841;48.938;9.502;2023-01-23T16:28:16;25.73;;;13.88;;
60969;SDS011;46841;48.938;9.502;2023-01-23T16:30:43;28.95;;;14.35;;
60969;SDS011;46841;48.938;9.502;2023-01-23T16:33:29;27.77;;;13.57;;
60969;SDS011;46841;48.938;9.502;2023-01-23T16:36:01;24.77;;;12.85;;
60969;SDS011;46841;48.938;9.502;2023-01-23T16:38:52;27.23;;;14.82;;
60969;SDS011;46841;48.938;9.502;2023-01-23T16:41:21;26.05;;;14.73;;
60969;SDS011;46841;48.938;9.502;2023-01-23T16:43:49;27.00;;;13.63;;
60969;SDS011;46841;48.938;9.502;2023-01-23T16:46:34;23.42;;;12.95;;
60969;SDS011;46841;48.938;9.502;2023-01-23T16:49:23;25.45;;;12.63;;
60969;SDS011;46841;48.938;9.502;2023-01-23T16:52:10;25.73;;;13.55;;
60969;SDS011;46841;48.938;9.502;2023-01-23T16:55:03;26.38;;;13.93;;
60969;SDS011;46841;48.938;9.502;2023-01-23T16:57:40;25.63;;;13.93;;
60969;SDS011;46841;48.938;9.502;2023-01-23T17:00:31;29.05;;;13.82;;
60969;SDS011;46841;48.938;9.502;2023-01-23T17:03:25;27.20;;;13.65;;
60969;SDS011;46841;48.938;9.502;2023-01-23T17:06:25;25.17;;;13.10;;
60969;SDS011;46841;48.938;9.502;2023-01-23T17:09:48;26.63;;;14.18;;